createdAt,value
2022-10-11T00:01:26.818Z,96530.66
2022-10-11T00:03:53.388Z,96434.78
2022-10-11T00:06:20.676Z,96330.47
2022-10-11T00:08:47.284Z,96330.88
2022-10-11T00:11:14.013Z,96280.44
2022-10-11T00:13:42.721Z,96251.38
2022-10-11T00:16:11.323Z,96249.44
2022-10-11T00:18:38.077Z,96202.91
2022-10-11T00:21:07.701Z,96172.66
2022-10-11T00:23:35.336Z,96140.88
2022-10-11T00:26:04.894Z,96067.25
2022-10-11T00:28:32.382Z,96043.94
2022-10-11T00:30:59.363Z,96039.34
2022-10-11T00:33:26.108Z,96004.47
2022-10-11T00:35:52.669Z,96005.19
2022-10-11T00:38:19.319Z,95994.78
2022-10-11T00:40:45.958Z,95994.34
2022-10-11T00:43:23.171Z,95987.41
2022-10-11T00:45:55.537Z,95952.94
2022-10-11T00:48:31.588Z,95935.88
2022-10-11T00:51:02.146Z,95907.66
2022-10-11T00:53:35.028Z,95878.13
2022-10-11T00:56:09.835Z,95882.00
2022-10-11T00:58:39.279Z,95848.34
2022-10-11T01:01:05.991Z,95836.25
2022-10-11T01:03:34.635Z,95830.56
2022-10-11T01:06:03.928Z,95813.44
2022-10-11T01:08:32.193Z,95812.25
2022-10-11T01:11:01.546Z,95803.81
2022-10-11T01:13:55.514Z,95765.00
2022-10-11T01:16:52.285Z,95760.75
2022-10-11T01:19:33.809Z,95746.53
2022-10-11T01:22:33.239Z,95732.44
2022-10-11T01:25:39.432Z,95732.59
2022-10-11T01:28:21.292Z,95710.97
2022-10-11T01:30:49.000Z,95689.94
2022-10-11T01:33:41.260Z,95718.38
2022-10-11T01:36:32.549Z,95721.84
2022-10-11T01:39:26.332Z,95725.72
2022-10-11T01:41:56.448Z,95726.63
2022-10-11T01:44:26.010Z,95719.16
2022-10-11T01:46:53.729Z,95727.28
2022-10-11T01:49:20.541Z,95728.16
2022-10-11T01:51:52.756Z,95714.53
2022-10-11T01:55:07.714Z,95721.94
2022-10-11T01:57:41.183Z,95697.19
2022-10-11T02:00:20.624Z,95681.59
2022-10-11T02:03:13.024Z,95699.47
2022-10-11T02:05:56.665Z,95678.19
2022-10-11T02:08:46.438Z,95669.13
2022-10-11T02:11:27.128Z,95663.84
2022-10-11T02:14:02.825Z,95656.03
2022-10-11T02:16:37.532Z,95659.16
2022-10-11T02:19:07.268Z,95652.25
2022-10-11T02:21:36.287Z,95646.72
2022-10-11T02:24:13.534Z,95661.53
2022-10-11T02:26:44.132Z,95646.06
2022-10-11T02:29:16.725Z,95641.31
2022-10-11T02:31:45.248Z,95648.38
2022-10-11T02:34:18.383Z,95637.47
2022-10-11T02:37:11.573Z,95635.88
2022-10-11T02:39:48.419Z,95641.03
2022-10-11T02:42:30.890Z,95630.03
2022-10-11T02:45:01.633Z,95641.34
2022-10-11T02:47:32.056Z,95642.09
2022-10-11T02:49:59.850Z,95648.16
2022-10-11T02:52:26.741Z,95677.00
2022-10-11T02:54:55.750Z,95667.66
2022-10-11T02:57:22.371Z,95675.41
2022-10-11T02:59:51.132Z,95673.91
2022-10-11T03:02:17.856Z,95666.84
2022-10-11T03:04:44.516Z,95682.38
2022-10-11T03:07:11.893Z,95697.53
2022-10-11T03:09:38.644Z,95688.56
2022-10-11T03:12:05.329Z,95705.69
2022-10-11T03:14:34.268Z,95701.00
2022-10-11T03:17:23.700Z,95709.56
2022-10-11T03:19:47.897Z,95725.84
2022-10-11T03:22:14.726Z,95728.50
2022-10-11T03:24:41.328Z,95757.25
2022-10-11T03:27:07.930Z,95758.00
2022-10-11T03:29:36.766Z,95769.25
2022-10-11T03:32:03.467Z,95794.81
2022-10-11T03:34:30.188Z,95780.84
2022-10-11T03:36:56.841Z,95800.97
2022-10-11T03:39:23.648Z,95796.34
2022-10-11T03:41:50.222Z,95810.66
2022-10-11T03:44:16.997Z,95821.91
2022-10-11T03:46:43.588Z,95822.69
2022-10-11T03:49:10.147Z,95841.25
2022-10-11T03:51:38.853Z,95854.81
2022-10-11T03:54:07.441Z,95869.50
2022-10-11T03:56:36.075Z,95886.16
2022-10-11T03:59:02.729Z,95889.63
2022-10-11T04:01:29.398Z,95905.88
2022-10-11T04:03:57.314Z,95904.72
2022-10-11T04:06:25.624Z,95927.16
2022-10-11T04:08:52.303Z,95933.75
2022-10-11T04:11:18.855Z,95938.38
2022-10-11T04:13:45.405Z,95963.13
2022-10-11T04:16:12.227Z,95972.00
2022-10-11T04:18:38.905Z,95990.16
2022-10-11T04:21:08.341Z,96017.56
2022-10-11T04:23:35.193Z,96016.84
2022-10-11T04:26:07.207Z,96051.94
2022-10-11T04:28:34.626Z,96058.88
2022-10-11T04:31:01.318Z,96056.19
2022-10-11T04:33:27.892Z,96083.91
2022-10-11T04:35:56.111Z,96081.22
2022-10-11T04:38:23.896Z,96107.81
2022-10-11T04:40:50.930Z,96115.91
2022-10-11T04:43:18.666Z,96120.94
2022-10-11T04:45:45.235Z,96144.38
2022-10-11T04:48:11.861Z,96147.94
2022-10-11T04:50:38.439Z,96184.88
2022-10-11T04:53:05.068Z,96180.25
2022-10-11T04:55:33.551Z,96203.75
2022-10-11T04:58:00.124Z,96207.06
2022-10-11T05:00:27.669Z,96202.50
2022-10-11T05:02:55.342Z,96233.13
2022-10-11T05:05:22.704Z,96225.06
2022-10-11T05:07:50.007Z,96240.03
2022-10-11T05:10:18.440Z,96232.22
2022-10-11T05:12:45.112Z,96238.47
2022-10-11T05:15:11.685Z,96253.34
2022-10-11T05:17:40.412Z,96260.31
2022-10-11T05:20:09.803Z,96273.34
2022-10-11T05:22:38.636Z,96276.34
2022-10-11T05:25:05.673Z,96260.31
2022-10-11T05:27:34.497Z,96281.25
2022-10-11T05:30:01.975Z,96279.00
2022-10-11T05:32:30.552Z,96292.38
2022-10-11T05:34:57.112Z,96281.81
2022-10-11T05:37:24.390Z,96285.06
2022-10-11T05:39:50.973Z,96280.88
2022-10-11T05:42:17.524Z,96277.19
2022-10-11T05:44:44.124Z,96288.72
2022-10-11T05:47:10.671Z,96293.47
2022-10-11T05:49:37.480Z,96295.97
2022-10-11T05:52:06.726Z,96300.38
2022-10-11T05:54:35.691Z,96296.53
2022-10-11T05:57:02.236Z,96322.38
2022-10-11T05:59:28.861Z,96312.22
2022-10-11T06:01:57.588Z,96302.69
2022-10-11T06:04:24.868Z,96308.31
2022-10-11T06:06:52.759Z,96308.75
2022-10-11T06:09:19.399Z,96317.31
2022-10-11T06:11:46.210Z,96337.66
2022-10-11T06:14:12.982Z,96343.16
2022-10-11T06:16:41.715Z,96353.91
2022-10-11T06:19:08.308Z,96356.13
2022-10-11T06:21:34.956Z,96374.00
2022-10-11T06:24:02.631Z,96385.44
2022-10-11T06:26:29.680Z,96390.03
2022-10-11T06:28:58.928Z,96394.00
2022-10-11T06:31:25.797Z,96402.25
2022-10-11T06:33:52.363Z,96406.28
2022-10-11T06:36:19.205Z,96415.59
2022-10-11T06:38:46.061Z,96424.63
2022-10-11T06:41:23.513Z,96427.53
2022-10-11T06:43:53.045Z,96445.44
2022-10-11T06:46:21.766Z,96441.59
2022-10-11T06:48:49.120Z,96442.56
2022-10-11T06:51:17.956Z,96470.91
2022-10-11T06:53:49.056Z,96493.41
2022-10-11T06:56:15.618Z,96496.53
2022-10-11T06:58:42.287Z,96504.91
2022-10-11T07:01:12.639Z,96512.13
2022-10-11T07:03:39.497Z,96523.63
2022-10-11T07:06:11.954Z,96559.16
2022-10-11T07:08:39.668Z,96575.63
2022-10-11T07:11:13.397Z,96620.06
2022-10-11T07:13:41.368Z,96629.59
2022-10-11T07:16:13.096Z,96635.00
2022-10-11T07:18:39.946Z,96645.75
2022-10-11T07:21:08.669Z,96639.91
2022-10-11T07:23:35.276Z,96689.94
2022-10-11T07:26:04.737Z,96699.41
2022-10-11T07:28:31.809Z,96707.78
2022-10-11T07:30:59.227Z,96742.28
2022-10-11T07:33:25.969Z,96745.31
2022-10-11T07:35:57.111Z,96777.72
2022-10-11T07:38:23.759Z,96809.69
2022-10-11T07:40:52.611Z,96826.19
2022-10-11T07:43:19.279Z,96881.19
2022-10-11T07:45:48.535Z,96891.19
2022-10-11T07:48:15.227Z,96918.56
2022-10-11T07:50:41.942Z,96940.66
2022-10-11T07:53:11.959Z,96935.88
2022-10-11T07:55:40.270Z,96967.44
2022-10-11T07:58:12.365Z,96959.19
2022-10-11T08:00:42.224Z,96993.16
2022-10-11T08:03:09.612Z,97011.84
2022-10-11T08:05:39.360Z,97026.94
2022-10-11T08:08:06.217Z,97050.56
2022-10-11T08:10:37.948Z,97042.41
2022-10-11T08:13:04.879Z,97081.69
2022-10-11T08:15:31.574Z,97094.75
2022-10-11T08:17:58.135Z,97132.28
2022-10-11T08:20:24.752Z,97133.91
2022-10-11T08:22:51.428Z,97146.47
2022-10-11T08:25:18.069Z,97188.88
2022-10-11T08:27:44.700Z,97176.84
2022-10-11T08:30:11.968Z,97213.16
2022-10-11T08:32:38.522Z,97227.69
2022-10-11T08:35:05.960Z,97230.22
2022-10-11T08:37:32.575Z,97248.81
2022-10-11T08:39:59.387Z,97246.00
2022-10-11T08:42:41.418Z,97272.56
2022-10-11T08:45:16.956Z,97282.91
2022-10-11T08:47:45.120Z,97282.41
2022-10-11T08:50:19.838Z,97318.47
2022-10-11T08:53:13.464Z,97318.97
2022-10-11T08:55:44.131Z,97365.00
2022-10-11T08:58:19.708Z,97363.44
2022-10-11T09:00:48.276Z,97393.59
2022-10-11T09:03:42.836Z,97395.84
2022-10-11T09:06:40.100Z,97427.22
2022-10-11T09:09:44.589Z,97486.13
2022-10-11T09:12:20.224Z,97487.28
2022-10-11T09:15:17.929Z,97516.75
2022-10-11T09:17:59.473Z,97574.22
2022-10-11T09:20:41.964Z,97562.25
2022-10-11T09:23:42.597Z,97605.63
2022-10-11T09:26:25.628Z,97661.88
2022-10-11T09:29:06.805Z,97657.59
2022-10-11T09:31:35.596Z,97669.16
2022-10-11T09:34:16.423Z,97684.03
2022-10-11T09:37:03.575Z,97730.59
2022-10-11T09:39:45.728Z,97759.47
2022-10-11T09:42:12.524Z,97778.22
2022-10-11T09:44:50.597Z,97753.63
2022-10-11T09:47:21.982Z,97743.03
2022-10-11T09:50:01.274Z,97767.22
2022-10-11T09:52:27.938Z,97807.94
2022-10-11T09:54:58.092Z,97858.44
2022-10-11T09:57:37.698Z,97831.34
2022-10-11T10:00:18.904Z,97844.72
2022-10-11T10:02:51.964Z,97910.34
2022-10-11T10:05:24.689Z,97946.09
2022-10-11T10:08:09.546Z,97930.69
2022-10-11T10:10:59.264Z,97937.88
2022-10-11T10:13:39.316Z,97966.81
2022-10-11T10:16:08.058Z,97997.59
2022-10-11T10:18:38.219Z,97993.13
2022-10-11T10:21:10.077Z,98008.06
2022-10-11T10:23:37.639Z,98024.22
2022-10-11T10:26:15.615Z,98052.94
2022-10-11T10:29:01.244Z,98050.66
2022-10-11T10:32:13.513Z,98074.19
2022-10-11T10:34:39.852Z,98119.28
2022-10-11T10:37:25.340Z,98122.66
2022-10-11T10:40:00.499Z,98161.97
2022-10-11T10:42:28.048Z,98199.69
2022-10-11T10:44:57.064Z,98193.75
2022-10-11T10:48:11.993Z,98236.84
2022-10-11T10:50:54.639Z,98244.09
2022-10-11T10:53:26.436Z,98261.19
2022-10-11T10:56:06.203Z,98265.28
2022-10-11T10:59:10.216Z,98283.50
2022-10-11T11:01:49.849Z,98285.09
2022-10-11T11:04:26.942Z,98297.31
2022-10-11T11:07:30.233Z,98322.91
2022-10-11T11:10:11.503Z,98333.78
2022-10-11T11:13:13.631Z,98334.69
2022-10-11T11:15:49.115Z,98328.25
2022-10-11T11:18:36.147Z,98334.25
2022-10-11T11:21:05.997Z,98346.72
2022-10-11T11:23:42.506Z,98342.13
2022-10-11T11:26:14.168Z,98351.66
2022-10-11T11:29:00.348Z,98338.72
2022-10-11T11:31:32.867Z,98363.63
2022-10-11T11:34:17.080Z,98384.72
2022-10-11T11:36:49.533Z,98390.16
2022-10-11T11:39:23.241Z,98409.66
2022-10-11T11:41:58.580Z,98400.38
2022-10-11T11:44:31.633Z,98401.25
2022-10-11T11:47:11.332Z,98416.22
2022-10-11T11:49:41.506Z,98420.97
2022-10-11T11:52:16.317Z,98438.00
2022-10-11T11:54:52.599Z,98443.88
2022-10-11T11:57:38.157Z,98437.06
2022-10-11T12:00:17.708Z,98457.94
2022-10-11T12:02:59.959Z,98481.97
2022-10-11T12:05:36.249Z,98488.91
2022-10-11T12:08:08.398Z,98486.75
2022-10-11T12:10:53.499Z,98489.94
2022-10-11T12:13:35.800Z,98497.38
2022-10-11T12:16:10.676Z,98508.03
2022-10-11T12:18:55.992Z,98495.66
2022-10-11T12:21:23.253Z,98497.81
2022-10-11T12:23:54.938Z,98512.75
2022-10-11T12:26:27.760Z,98507.41
2022-10-11T12:29:18.340Z,98521.16
2022-10-11T12:31:49.979Z,98518.97
2022-10-11T12:34:42.024Z,98533.06
2022-10-11T12:37:19.799Z,98537.72
2022-10-11T12:39:54.207Z,98536.91
2022-10-11T12:42:28.204Z,98538.59
2022-10-11T12:45:15.873Z,98548.81
2022-10-11T12:48:08.903Z,98558.81
2022-10-11T12:51:02.788Z,98571.38
2022-10-11T12:54:25.569Z,98574.06
2022-10-11T12:57:35.109Z,98582.00
2022-10-11T13:00:31.166Z,98596.75
2022-10-11T13:03:29.754Z,98608.13
2022-10-11T13:06:01.892Z,98617.41
2022-10-11T13:08:36.800Z,98623.31
2022-10-11T13:11:08.708Z,98623.06
2022-10-11T13:13:45.309Z,98628.44
2022-10-11T13:16:19.778Z,98627.22
2022-10-11T13:18:49.716Z,98629.72
2022-10-11T13:21:27.121Z,98644.56
2022-10-11T13:24:16.594Z,98665.22
2022-10-11T13:26:45.524Z,98675.09
2022-10-11T13:29:18.696Z,98670.56
2022-10-11T13:31:47.399Z,98680.53
2022-10-11T13:34:14.597Z,98688.28
2022-10-11T13:36:42.355Z,98686.16
2022-10-11T13:39:30.141Z,98692.28
2022-10-11T13:41:59.862Z,98698.38
2022-10-11T13:44:27.444Z,98709.81
2022-10-11T13:46:54.584Z,98704.28
2022-10-11T13:49:37.137Z,98711.06
2022-10-11T13:52:18.673Z,98708.50
2022-10-11T13:55:04.349Z,98718.19
2022-10-11T13:57:36.314Z,98729.59
2022-10-11T14:00:24.181Z,98733.63
2022-10-11T14:03:01.809Z,98731.63
2022-10-11T14:05:54.109Z,98734.06
2022-10-11T14:08:37.858Z,98736.13
2022-10-11T14:11:06.840Z,98731.75
2022-10-11T14:13:38.565Z,98738.78
2022-10-11T14:16:11.228Z,98734.56
2022-10-11T14:18:44.562Z,98726.31
2022-10-11T14:21:43.393Z,98734.28
2022-10-11T14:24:13.043Z,98728.28
2022-10-11T14:26:42.775Z,98746.34
2022-10-11T14:29:17.680Z,98743.88
2022-10-11T14:31:44.338Z,98733.34
2022-10-11T14:34:25.308Z,98738.75
2022-10-11T14:36:53.568Z,98750.94
2022-10-11T14:39:24.736Z,98730.44
2022-10-11T14:41:52.505Z,98737.97
2022-10-11T14:44:20.547Z,98743.94
2022-10-11T14:46:50.213Z,98752.03
2022-10-11T14:49:30.808Z,98747.78
2022-10-11T14:51:59.484Z,98754.88
2022-10-11T14:54:27.455Z,98763.66
2022-10-11T14:56:56.896Z,98766.38
2022-10-11T14:59:26.890Z,98767.53
2022-10-11T15:01:56.387Z,98783.59
2022-10-11T15:04:26.045Z,98782.03
2022-10-11T15:06:55.344Z,98777.69
2022-10-11T15:09:22.191Z,98787.81
2022-10-11T15:11:51.536Z,98790.16
2022-10-11T15:14:18.375Z,98795.22
2022-10-11T15:16:44.977Z,98796.63
2022-10-11T15:19:16.844Z,98796.28
2022-10-11T15:21:43.733Z,98801.50
2022-10-11T15:24:10.359Z,98792.47
2022-10-11T15:26:37.033Z,98799.06
2022-10-11T15:29:03.693Z,98805.84
2022-10-11T15:31:30.403Z,98804.19
2022-10-11T15:33:59.619Z,98803.81
2022-10-11T15:36:28.637Z,98810.50
2022-10-11T15:38:55.677Z,98808.44
2022-10-11T15:41:23.983Z,98804.56
2022-10-11T15:43:50.696Z,98795.22
2022-10-11T15:46:22.760Z,98800.97
2022-10-11T15:48:52.975Z,98805.03
2022-10-11T15:51:19.832Z,98798.03
2022-10-11T15:53:46.985Z,98803.09
2022-10-11T15:56:16.928Z,98799.69
2022-10-11T15:58:43.801Z,98803.47
2022-10-11T16:01:19.417Z,98802.78
2022-10-11T16:03:50.720Z,98796.38
2022-10-11T16:06:19.344Z,98797.19
2022-10-11T16:08:48.055Z,98780.78
2022-10-11T16:11:15.156Z,98796.56
2022-10-11T16:13:41.775Z,98782.59
2022-10-11T16:16:09.868Z,98776.69
2022-10-11T16:18:37.147Z,98775.88
2022-10-11T16:21:11.364Z,98767.28
2022-10-11T16:23:38.772Z,98783.56
2022-10-11T16:26:08.758Z,98752.13
2022-10-11T16:28:35.947Z,98773.97
2022-10-11T16:31:10.162Z,98772.25
2022-10-11T16:33:46.193Z,98770.47
2022-10-11T16:36:43.184Z,98786.91
2022-10-11T16:39:15.874Z,98772.41
2022-10-11T16:41:43.068Z,98773.03
2022-10-11T16:44:18.403Z,98776.72
2022-10-11T16:46:49.881Z,98780.53
2022-10-11T16:49:22.161Z,98792.81
2022-10-11T16:51:49.779Z,98791.03
2022-10-11T16:54:20.450Z,98804.59
2022-10-11T16:56:48.487Z,98801.91
2022-10-11T16:59:15.393Z,98806.19
2022-10-11T17:01:44.265Z,98817.34
2022-10-11T17:04:10.979Z,98810.94
2022-10-11T17:06:40.124Z,98828.00
2022-10-11T17:09:07.863Z,98824.16
2022-10-11T17:11:34.513Z,98822.59
2022-10-11T17:14:01.884Z,98837.72
2022-10-11T17:16:28.563Z,98836.75
2022-10-11T17:18:55.113Z,98837.09
2022-10-11T17:21:22.511Z,98850.47
2022-10-11T17:23:49.755Z,98851.47
2022-10-11T17:26:19.661Z,98861.59
2022-10-11T17:28:48.861Z,98861.94
2022-10-11T17:31:15.644Z,98871.06
2022-10-11T17:33:42.327Z,98870.84
2022-10-11T17:36:20.141Z,98861.50
2022-10-11T17:38:47.440Z,98884.63
2022-10-11T17:41:14.140Z,98888.75
2022-10-11T17:43:41.212Z,98883.66
2022-10-11T17:46:09.280Z,98894.00
2022-10-11T17:48:37.445Z,98902.00
2022-10-11T17:51:16.163Z,98890.50
2022-10-11T17:53:43.688Z,98901.69
2022-10-11T17:56:13.596Z,98908.22
2022-10-11T17:58:40.419Z,98907.00
2022-10-11T18:01:10.389Z,98914.38
2022-10-11T18:03:37.682Z,98912.53
2022-10-11T18:06:06.232Z,98922.34
2022-10-11T18:08:40.407Z,98924.09
2022-10-11T18:11:11.949Z,98932.25
2022-10-11T18:13:42.064Z,98932.69
2022-10-11T18:16:10.389Z,98939.88
2022-10-11T18:18:37.260Z,98941.19
2022-10-11T18:21:03.927Z,98938.84
2022-10-11T18:23:31.304Z,98936.69
2022-10-11T18:25:57.876Z,98946.19
2022-10-11T18:28:24.623Z,98943.28
2022-10-11T18:30:53.202Z,98948.75
2022-10-11T18:33:19.768Z,98943.72
2022-10-11T18:35:46.332Z,98953.50
2022-10-11T18:38:12.952Z,98946.41
2022-10-11T18:40:44.757Z,98948.16
2022-10-11T18:43:13.464Z,98945.44
2022-10-11T18:45:40.109Z,98946.59
2022-10-11T18:48:08.615Z,98937.25
2022-10-11T18:50:35.636Z,98937.75
2022-10-11T18:55:31.444Z,98934.88
2022-10-11T18:57:58.023Z,98920.13
2022-10-11T19:00:40.737Z,98922.75
2022-10-11T19:03:08.049Z,98912.19
2022-10-11T19:05:34.637Z,98910.69
2022-10-11T19:08:01.271Z,98918.00
2022-10-11T19:10:28.203Z,98910.47
2022-10-11T19:12:54.832Z,98921.41
2022-10-11T19:15:25.224Z,98915.41
2022-10-11T19:17:55.029Z,98913.03
2022-10-11T19:20:21.940Z,98911.94
2022-10-11T19:22:48.742Z,98908.56
2022-10-11T19:25:15.532Z,98923.94
2022-10-11T19:27:42.207Z,98915.88
2022-10-11T19:30:09.104Z,98921.16
2022-10-11T19:32:35.685Z,98915.59
2022-10-11T19:35:02.373Z,98901.84
2022-10-11T19:37:30.939Z,98909.59
2022-10-11T19:39:57.720Z,98900.69
2022-10-11T19:42:24.963Z,98898.91
2022-10-11T19:44:51.549Z,98902.47
2022-10-11T19:47:18.289Z,98896.88
2022-10-11T19:49:44.891Z,98909.72
2022-10-11T19:52:13.378Z,98907.78
2022-10-11T19:54:39.963Z,98908.25
2022-10-11T19:57:08.767Z,98912.44
2022-10-11T19:59:37.466Z,98908.88
2022-10-11T20:02:04.019Z,98910.09
2022-10-11T20:04:51.699Z,98910.22
2022-10-11T20:07:17.972Z,98915.50
2022-10-11T20:09:44.554Z,98921.66
2022-10-11T20:12:11.105Z,98936.44
2022-10-11T20:14:37.789Z,98944.19
2022-10-11T20:17:04.366Z,98943.44
2022-10-11T20:19:31.749Z,98935.81
2022-10-11T20:21:59.853Z,98941.09
2022-10-11T20:24:28.955Z,98939.38
2022-10-11T20:26:55.696Z,98940.25
2022-10-11T20:29:24.256Z,98938.28
2022-10-11T20:31:53.545Z,98939.88
2022-10-11T20:34:20.158Z,98943.44
2022-10-11T20:36:49.084Z,98941.09
2022-10-11T20:39:16.129Z,98939.25
2022-10-11T20:41:42.938Z,98937.41
2022-10-11T20:44:10.410Z,98938.56
2022-10-11T20:46:39.195Z,98940.47
2022-10-11T20:49:09.772Z,98938.75
2022-10-11T20:51:38.507Z,98951.91
2022-10-11T20:54:05.528Z,98946.75
2022-10-11T20:56:35.911Z,98955.56
2022-10-11T20:59:02.478Z,98950.56
2022-10-11T21:01:35.286Z,98956.69
2022-10-11T21:04:02.865Z,98966.19
2022-10-11T21:06:32.167Z,98959.84
2022-10-11T21:08:59.932Z,98961.78
2022-10-11T21:11:33.340Z,98963.84
2022-10-11T21:14:02.347Z,98961.44
2022-10-11T21:16:29.487Z,98963.34
2022-10-11T21:18:57.847Z,98953.47
2022-10-11T21:21:25.255Z,98951.84
2022-10-11T21:24:00.609Z,98955.09
2022-10-11T21:26:28.000Z,98950.28
2022-10-11T21:28:54.716Z,98960.91
2022-10-11T21:31:22.649Z,98949.91
2022-10-11T21:33:49.661Z,98947.47
2022-10-11T21:36:20.089Z,98941.50
2022-10-11T21:38:47.825Z,98949.41
2022-10-11T21:41:17.598Z,98953.91
2022-10-11T21:43:44.199Z,98948.13
2022-10-11T21:46:14.023Z,98949.19
2022-10-11T21:48:40.727Z,98945.09
2022-10-11T21:51:09.519Z,98948.13
2022-10-11T21:53:38.412Z,98947.69
2022-10-11T21:56:05.014Z,98947.25
2022-10-11T21:58:33.774Z,98949.69
2022-10-11T22:01:00.656Z,98946.59
2022-10-11T22:03:27.269Z,98942.06
2022-10-11T22:05:54.564Z,98950.31
2022-10-11T22:08:23.869Z,98949.59
2022-10-11T22:10:57.167Z,98962.00
2022-10-11T22:13:25.364Z,98957.00
2022-10-11T22:15:52.171Z,98962.63
2022-10-11T22:18:19.207Z,98961.25
2022-10-11T22:20:45.817Z,98960.81
2022-10-11T22:23:12.732Z,98960.22
2022-10-11T22:25:39.698Z,98943.72
2022-10-11T22:28:06.847Z,98947.34
2022-10-11T22:30:33.935Z,98941.91
2022-10-11T22:33:00.716Z,98938.06
2022-10-11T22:35:31.405Z,98938.72
2022-10-11T22:38:00.243Z,98933.78
2022-10-11T22:40:26.887Z,98932.38
2022-10-11T22:42:53.609Z,98928.44
2022-10-11T22:45:20.239Z,98934.56
2022-10-11T22:47:46.839Z,98946.44
2022-10-11T22:50:13.971Z,98932.50
2022-10-11T22:52:40.616Z,98939.16
2022-10-11T22:55:07.536Z,98922.06
2022-10-11T22:57:34.410Z,98921.41
2022-10-11T23:00:03.473Z,98904.50
2022-10-11T23:02:30.095Z,98888.78
2022-10-11T23:04:58.415Z,98905.50
2022-10-11T23:07:25.088Z,98899.94
2022-10-11T23:09:51.696Z,98890.63
2022-10-11T23:12:20.145Z,98885.72
2022-10-11T23:14:46.716Z,98856.81
2022-10-11T23:17:13.292Z,98852.94
2022-10-11T23:19:39.945Z,98816.28
2022-10-11T23:22:06.488Z,98782.09
2022-10-11T23:24:35.323Z,98766.09
2022-10-11T23:27:01.899Z,98704.78
2022-10-11T23:29:31.881Z,98656.91
2022-10-11T23:31:58.504Z,98659.00
2022-10-11T23:34:25.267Z,98645.75
2022-10-11T23:36:51.906Z,98665.38
2022-10-11T23:39:18.617Z,98662.94
2022-10-11T23:41:47.332Z,98658.09
2022-10-11T23:44:13.867Z,98661.00
2022-10-11T23:46:40.519Z,98623.34
2022-10-11T23:49:07.248Z,98620.75
2022-10-11T23:51:34.563Z,98631.91
2022-10-11T23:54:01.236Z,98612.06
2022-10-11T23:56:27.835Z,98630.88
2022-10-11T23:58:56.723Z,98616.94
